Time;durP1;ratioP1;P1;durP2;ratioP2;P2;SDS_P1;SDS_P2;PMS_P1;PMS_P2;Temp;Humidity;BMP_temperature;BMP_pressure;BME280_temperature;BME280_humidity;BME280_pressure;Samples;Min_cycle;Max_cycle;Signal;HPM_P1;HPM_P2
2021/05/02 00:02:06;;;;;;;12.37;11.07;;;11.30;99.90;;;;;;5017476;28;20224;-70
2021/05/02 00:04:32;;;;;;;11.50;10.30;;;11.20;99.90;;;;;;5022413;28;20529;-69
2021/05/02 00:07:02;;;;;;;13.40;10.90;;;11.20;99.90;;;;;;5026785;28;20518;-72
2021/05/02 00:09:29;;;;;;;11.40;10.27;;;11.20;99.90;;;;;;5023571;28;20606;-71
2021/05/02 00:11:55;;;;;;;11.40;10.30;;;11.30;99.90;;;;;;5024220;28;20459;-71
2021/05/02 00:14:20;;;;;;;13.27;11.87;;;11.30;99.90;;;;;;5022639;28;20457;-71
2021/05/02 00:16:46;;;;;;;13.50;12.10;;;11.40;99.90;;;;;;5020918;28;20478;-70
2021/05/02 00:19:12;;;;;;;14.50;13.00;;;11.40;99.90;;;;;;5020807;28;20180;-69
2021/05/02 00:21:38;;;;;;;16.03;10.93;;;11.30;99.90;;;;;;5025686;28;20454;-70
2021/05/02 00:24:04;;;;;;;12.30;11.03;;;11.40;99.90;;;;;;5018935;28;20518;-70
2021/05/02 00:26:31;;;;;;;12.43;10.30;;;11.40;99.90;;;;;;5024132;28;20223;-69
2021/05/02 00:28:59;;;;;;;13.20;11.20;;;11.40;99.90;;;;;;5020720;28;20423;-69
2021/05/02 00:31:25;;;;;;;11.20;10.10;;;11.30;99.90;;;;;;5020636;28;20455;-70
2021/05/02 00:33:51;;;;;;;11.43;10.03;;;11.30;99.90;;;;;;5007970;28;20441;-70
2021/05/02 00:36:17;;;;;;;12.97;11.30;;;11.30;99.90;;;;;;5019547;28;20468;-67
2021/05/02 00:38:43;;;;;;;12.10;10.13;;;11.20;99.90;;;;;;5023505;28;20451;-70
2021/05/02 00:41:33;;;;;;;12.60;11.40;;;11.20;99.90;;;;;;5019492;28;20500;-69
2021/05/02 00:44:10;;;;;;;11.40;10.33;;;11.10;99.90;;;;;;5016185;28;20831;-71
2021/05/02 00:46:38;;;;;;;12.80;11.10;;;11.10;99.90;;;;;;5022107;28;20519;-69
2021/05/02 00:49:04;;;;;;;12.40;10.37;;;11.20;99.90;;;;;;5019811;28;20438;-70
2021/05/02 00:51:36;;;;;;;12.20;11.00;;;11.20;99.90;;;;;;5019390;28;20457;-70
2021/05/02 00:54:15;;;;;;;11.43;10.23;;;11.20;99.90;;;;;;5017636;28;20697;-69
2021/05/02 00:56:56;;;;;;;11.03;9.67;;;11.20;99.90;;;;;;5022304;28;20466;-72
2021/05/02 00:59:30;;;;;;;11.97;10.63;;;11.20;99.90;;;;;;5022223;28;20427;-71
2021/05/02 01:02:01;;;;;;;12.90;10.10;;;11.20;99.90;;;;;;5017365;28;20428;-70
2021/05/02 01:04:30;;;;;;;11.63;10.43;;;11.20;99.90;;;;;;5023803;28;20418;-69
2021/05/02 01:07:01;;;;;;;11.97;10.77;;;11.20;99.90;;;;;;5021508;28;20443;-69
2021/05/02 01:09:29;;;;;;;14.70;10.50;;;11.20;99.90;;;;;;5019620;28;20424;-71
2021/05/02 01:11:59;;;;;;;12.10;10.90;;;11.20;99.90;;;;;;5022004;28;20526;-69
2021/05/02 01:14:28;;;;;;;12.70;11.40;;;11.10;99.90;;;;;;5024286;28;20498;-70
2021/05/02 01:16:58;;;;;;;13.63;12.30;;;11.10;99.90;;;;;;5002421;28;20478;-69
2021/05/02 01:19:26;;;;;;;12.43;11.20;;;11.10;99.90;;;;;;5022136;28;20431;-70
2021/05/02 01:21:56;;;;;;;13.53;12.13;;;11.10;99.90;;;;;;5005159;28;20446;-69
2021/05/02 01:24:21;;;;;;;13.63;12.20;;;11.20;99.90;;;;;;5022600;28;20424;-70
2021/05/02 01:26:47;;;;;;;15.20;12.63;;;11.20;99.90;;;;;;5026940;28;20428;-68
2021/05/02 01:29:15;;;;;;;13.30;10.60;;;11.20;99.90;;;;;;5023215;28;20191;-70
2021/05/02 01:31:42;;;;;;;13.07;11.60;;;11.20;99.90;;;;;;5022413;28;20467;-69
2021/05/02 01:34:08;;;;;;;14.00;11.60;;;11.30;99.90;;;;;;5024303;28;20424;-69
2021/05/02 01:36:33;;;;;;;14.33;12.90;;;11.30;99.90;;;;;;5025908;28;20472;-69
2021/05/02 01:39:03;;;;;;;12.97;11.73;;;11.30;99.90;;;;;;5025231;28;20478;-68
2021/05/02 01:41:29;;;;;;;12.83;11.20;;;11.30;99.90;;;;;;5022028;28;20217;-69
2021/05/02 01:43:55;;;;;;;15.13;12.33;;;11.30;99.90;;;;;;5023915;28;20435;-71
2021/05/02 01:46:41;;;;;;;15.13;12.67;;;11.30;99.90;;;;;;5025642;28;20439;-71
2021/05/02 01:49:10;;;;;;;12.83;11.53;;;11.30;99.90;;;;;;5021509;28;20211;-68
2021/05/02 01:51:37;;;;;;;13.40;12.00;;;11.40;99.90;;;;;;5025497;28;20451;-71
2021/05/02 01:54:03;;;;;;;14.37;12.87;;;11.40;99.90;;;;;;5025158;28;20431;-69
2021/05/02 01:56:31;;;;;;;14.37;11.87;;;11.40;99.90;;;;;;5024252;28;20881;-69
2021/05/02 01:58:59;;;;;;;19.00;13.67;;;11.40;99.90;;;;;;5020188;28;20442;-68
2021/05/02 02:01:27;;;;;;;13.73;12.37;;;11.40;99.90;;;;;;5018840;28;20466;-69
2021/05/02 02:03:54;;;;;;;15.60;12.63;;;11.40;99.90;;;;;;5024189;28;20455;-68
2021/05/02 02:06:20;;;;;;;14.83;13.00;;;11.40;99.90;;;;;;5022641;28;20455;-71
2021/05/02 02:08:46;;;;;;;13.57;12.17;;;11.40;99.90;;;;;;5025023;28;20438;-67
2021/05/02 02:11:12;;;;;;;13.60;12.30;;;11.40;99.90;;;;;;5021198;28;20212;-68
2021/05/02 02:13:38;;;;;;;17.33;13.17;;;11.40;99.90;;;;;;5022131;28;20435;-68
2021/05/02 02:16:07;;;;;;;17.93;12.47;;;11.40;99.90;;;;;;5020133;28;20208;-69
2021/05/02 02:18:33;;;;;;;13.33;11.97;;;11.40;99.90;;;;;;5021312;28;20189;-70
2021/05/02 02:21:01;;;;;;;14.83;13.30;;;11.40;99.90;;;;;;5022410;28;21192;-70
2021/05/02 02:23:37;;;;;;;14.77;13.13;;;11.40;99.90;;;;;;5022834;28;20193;-70
2021/05/02 02:26:28;;;;;;;14.93;13.40;;;11.40;99.90;;;;;;5028045;28;20446;-70
2021/05/02 02:28:55;;;;;;;13.60;12.30;;;11.40;99.90;;;;;;4998750;28;20943;-67
2021/05/02 02:31:22;;;;;;;13.93;12.53;;;11.40;99.90;;;;;;5035934;28;20459;-70
2021/05/02 02:33:49;;;;;;;15.07;13.57;;;11.40;99.90;;;;;;5035208;28;20453;-69
2021/05/02 02:36:15;;;;;;;14.57;13.17;;;11.40;99.90;;;;;;5033262;28;20880;-71
2021/05/02 02:38:42;;;;;;;14.77;12.80;;;11.40;99.90;;;;;;5025690;28;20427;-70
2021/05/02 02:41:16;;;;;;;15.90;12.70;;;11.40;99.90;;;;;;5026898;28;20466;-68
2021/05/02 02:43:52;;;;;;;12.93;11.60;;;11.20;99.90;;;;;;5021669;28;20462;-71
2021/05/02 02:46:19;;;;;;;14.20;12.70;;;11.10;99.90;;;;;;5021990;28;20949;-70
2021/05/02 02:48:50;;;;;;;17.00;13.20;;;11.10;99.90;;;;;;5021670;28;21062;-69
2021/05/02 02:51:17;;;;;;;17.00;14.13;;;11.00;99.90;;;;;;5017177;28;20466;-71
2021/05/02 02:53:43;;;;;;;15.90;14.17;;;10.90;99.90;;;;;;5020636;28;20614;-68
2021/05/02 02:56:13;;;;;;;15.00;13.60;;;10.80;99.90;;;;;;5020904;28;20557;-70
2021/05/02 02:59:02;;;;;;;14.80;13.30;;;10.80;99.90;;;;;;5018760;28;20431;-67
2021/05/02 03:01:28;;;;;;;16.57;14.93;;;10.80;99.90;;;;;;5006449;28;20513;-69
2021/05/02 03:03:57;;;;;;;18.03;15.03;;;10.70;99.90;;;;;;5021853;28;20462;-69
2021/05/02 03:06:26;;;;;;;16.60;14.43;;;10.80;99.90;;;;;;5019096;28;20461;-70
2021/05/02 03:08:53;;;;;;;15.20;13.60;;;10.70;99.90;;;;;;5024504;28;20435;-69
2021/05/02 03:11:19;;;;;;;16.60;14.20;;;10.60;99.90;;;;;;5020275;28;20536;-70
2021/05/02 03:13:45;;;;;;;15.70;13.83;;;10.70;99.90;;;;;;5019111;28;20420;-71
2021/05/02 03:16:12;;;;;;;17.43;15.00;;;10.70;99.90;;;;;;5022142;28;20509;-69
2021/05/02 03:18:59;;;;;;;15.17;13.67;;;10.50;99.90;;;;;;5023508;28;21157;-71
2021/05/02 03:21:42;;;;;;;14.27;12.87;;;10.50;99.90;;;;;;5021622;28;20841;-68
2021/05/02 03:24:10;;;;;;;14.97;13.37;;;10.50;99.90;;;;;;5022399;28;20769;-68
2021/05/02 03:26:37;;;;;;;15.20;13.60;;;10.40;99.90;;;;;;5020639;28;20451;-72
2021/05/02 03:29:04;;;;;;;14.50;13.00;;;10.40;99.90;;;;;;5018089;28;20526;-69
2021/05/02 03:31:35;;;;;;;16.20;13.37;;;10.30;99.90;;;;;;5016702;28;20456;-70
2021/05/02 03:34:06;;;;;;;16.33;13.90;;;10.40;99.90;;;;;;5018874;28;20435;-70
2021/05/02 03:36:50;;;;;;;15.90;14.07;;;10.40;99.90;;;;;;5020737;28;20463;-69
2021/05/02 03:39:16;;;;;;;16.90;14.07;;;10.40;99.90;;;;;;5020724;28;20490;-69
2021/05/02 03:41:42;;;;;;;18.23;13.73;;;10.40;99.90;;;;;;5018218;28;20458;-69
2021/05/02 03:44:08;;;;;;;15.27;13.77;;;10.40;99.90;;;;;;5018254;28;20439;-69
2021/05/02 03:46:34;;;;;;;17.77;15.20;;;10.40;99.90;;;;;;5018915;28;20181;-70
2021/05/02 03:49:04;;;;;;;15.97;13.50;;;10.40;99.90;;;;;;5023186;28;20227;-69
2021/05/02 03:51:33;;;;;;;14.97;13.43;;;10.40;99.90;;;;;;5020289;28;20490;-71
2021/05/02 03:53:59;;;;;;;17.97;14.60;;;10.20;99.90;;;;;;5022946;28;20436;-68
2021/05/02 03:56:35;;;;;;;16.63;14.57;;;10.10;99.90;;;;;;5020838;28;20472;-69
2021/05/02 03:59:21;;;;;;;18.73;14.63;;;10.00;99.90;;;;;;5019734;28;20419;-69
2021/05/02 04:01:57;;;;;;;15.67;14.00;;;9.90;99.90;;;;;;5022920;28;20469;-69
2021/05/02 04:04:29;;;;;;;16.50;14.00;;;10.00;99.90;;;;;;5020454;28;20441;-69
2021/05/02 04:07:02;;;;;;;17.63;15.63;;;9.90;99.90;;;;;;5019087;28;20432;-69
2021/05/02 04:09:28;;;;;;;17.90;14.20;;;9.90;99.90;;;;;;5006592;28;20439;-70
2021/05/02 04:11:55;;;;;;;17.03;13.87;;;9.90;99.90;;;;;;5025055;28;20453;-68
2021/05/02 04:14:20;;;;;;;18.70;14.93;;;9.90;99.90;;;;;;5022881;28;20457;-71
2021/05/02 04:17:00;;;;;;;17.03;14.43;;;9.80;99.90;;;;;;5019104;28;20478;-69
2021/05/02 04:19:27;;;;;;;16.77;14.97;;;9.80;99.90;;;;;;5023830;28;20531;-70
2021/05/02 04:21:53;;;;;;;17.67;15.10;;;9.80;99.90;;;;;;5022644;28;20550;-70
2021/05/02 04:24:19;;;;;;;19.23;15.03;;;9.80;99.90;;;;;;5023699;28;20848;-71
2021/05/02 04:26:51;;;;;;;17.70;15.43;;;9.80;99.90;;;;;;5023734;28;20454;-69
2021/05/02 04:29:17;;;;;;;17.13;15.07;;;9.70;99.90;;;;;;5007513;28;20439;-72
2021/05/02 04:31:43;;;;;;;18.23;15.07;;;9.70;99.90;;;;;;5007320;28;20456;-70
2021/05/02 04:34:09;;;;;;;18.00;15.10;;;9.70;99.90;;;;;;5025132;28;20461;-69
2021/05/02 04:36:34;;;;;;;18.00;14.47;;;9.80;99.90;;;;;;5007255;28;20250;-70
2021/05/02 04:39:02;;;;;;;19.40;14.60;;;9.70;99.90;;;;;;5004275;28;20197;-69
2021/05/02 04:41:27;;;;;;;23.10;16.43;;;9.70;99.90;;;;;;5023815;28;20962;-72
2021/05/02 04:43:53;;;;;;;17.30;14.80;;;9.70;99.90;;;;;;5025233;28;20420;-71
2021/05/02 04:46:19;;;;;;;20.77;15.93;;;9.70;99.90;;;;;;5003248;28;20192;-69
2021/05/02 04:48:45;;;;;;;20.40;15.70;;;9.70;99.90;;;;;;5024989;28;20835;-69
2021/05/02 04:51:12;;;;;;;17.53;15.63;;;9.70;99.90;;;;;;5020801;28;20698;-69
2021/05/02 04:53:39;;;;;;;22.23;15.90;;;9.60;99.90;;;;;;5023803;28;20219;-71
2021/05/02 04:56:04;;;;;;;22.63;15.50;;;9.60;99.90;;;;;;5023973;28;21056;-69
2021/05/02 04:58:30;;;;;;;22.23;16.00;;;9.60;99.90;;;;;;5023709;28;20526;-70
2021/05/02 05:00:56;;;;;;;20.87;15.37;;;9.50;99.90;;;;;;5007047;28;20400;-69
2021/05/02 05:03:21;;;;;;;18.87;14.90;;;9.50;99.90;;;;;;5021878;28;20738;-70
2021/05/02 05:05:47;;;;;;;18.43;14.80;;;9.40;99.90;;;;;;5024336;28;20551;-70
2021/05/02 05:08:13;;;;;;;21.13;15.97;;;9.40;99.90;;;;;;5023675;28;20245;-70
2021/05/02 05:10:38;;;;;;;17.50;14.80;;;9.40;99.90;;;;;;5022798;28;20539;-70
2021/05/02 05:13:04;;;;;;;18.03;14.20;;;9.30;99.90;;;;;;5019787;28;20192;-71
2021/05/02 05:15:30;;;;;;;17.23;15.10;;;9.30;99.90;;;;;;5006486;28;20327;-68
2021/05/02 05:17:55;;;;;;;18.20;15.00;;;9.20;99.90;;;;;;5004741;28;20781;-70
2021/05/02 05:20:21;;;;;;;17.03;15.20;;;9.20;99.90;;;;;;5020222;28;20866;-70
2021/05/02 05:22:47;;;;;;;15.10;13.50;;;9.30;99.90;;;;;;5019618;28;20195;-69
2021/05/02 05:25:13;;;;;;;19.33;15.20;;;9.20;99.90;;;;;;5021018;28;20632;-68
2021/05/02 05:27:39;;;;;;;18.10;14.00;;;9.30;99.90;;;;;;5021732;28;20184;-70
2021/05/02 05:30:06;;;;;;;18.33;13.83;;;9.30;99.90;;;;;;5020107;28;20435;-73
2021/05/02 05:32:31;;;;;;;17.17;14.70;;;9.30;99.90;;;;;;5024275;28;20195;-69
2021/05/02 05:34:57;;;;;;;21.10;15.50;;;9.30;99.90;;;;;;5020986;28;20435;-70
2021/05/02 05:37:23;;;;;;;20.47;15.30;;;9.30;99.90;;;;;;5019436;28;20223;-70
2021/05/02 05:39:49;;;;;;;20.47;16.13;;;9.30;99.90;;;;;;5021837;28;20661;-68
2021/05/02 05:42:15;;;;;;;19.17;15.30;;;9.40;99.90;;;;;;5020900;28;20214;-69
2021/05/02 05:44:40;;;;;;;17.53;14.30;;;9.40;99.90;;;;;;5022824;28;20431;-70
2021/05/02 05:47:06;;;;;;;17.83;13.77;;;9.40;99.90;;;;;;5018818;28;20594;-71
2021/05/02 05:49:32;;;;;;;20.27;15.63;;;9.40;99.90;;;;;;5022992;28;20197;-70
2021/05/02 05:51:57;;;;;;;19.40;14.90;;;9.30;99.90;;;;;;5022042;28;20208;-70
2021/05/02 05:54:23;;;;;;;17.40;14.10;;;9.40;99.90;;;;;;5017109;28;20287;-69
2021/05/02 05:56:49;;;;;;;20.83;14.87;;;9.50;99.90;;;;;;5019191;28;20575;-72
2021/05/02 05:59:16;;;;;;;19.67;15.03;;;9.60;99.90;;;;;;5003093;28;20518;-73
2021/05/02 06:01:42;;;;;;;17.00;14.27;;;9.70;99.90;;;;;;5026176;28;20455;-69
2021/05/02 06:04:08;;;;;;;18.93;15.73;;;9.70;99.90;;;;;;5024397;28;20530;-71
2021/05/02 06:06:35;;;;;;;17.97;15.67;;;9.70;99.90;;;;;;5029348;28;20474;-70
2021/05/02 06:09:02;;;;;;;15.87;14.00;;;9.80;99.90;;;;;;5037782;28;20473;-70
2021/05/02 06:11:29;;;;;;;17.23;14.17;;;9.80;99.90;;;;;;5033020;28;20554;-71
2021/05/02 06:13:55;;;;;;;21.20;14.50;;;9.90;99.90;;;;;;5023646;28;20428;-71
2021/05/02 06:16:21;;;;;;;19.90;15.47;;;9.90;99.90;;;;;;5025019;28;20497;-70
2021/05/02 06:18:46;;;;;;;15.80;14.07;;;9.90;99.90;;;;;;5022163;28;20941;-69
2021/05/02 06:21:12;;;;;;;17.10;14.70;;;9.90;99.90;;;;;;5023295;28;20201;-70
2021/05/02 06:23:38;;;;;;;22.37;15.47;;;9.80;99.90;;;;;;5022630;28;20280;-70
2021/05/02 06:26:03;;;;;;;18.10;14.80;;;9.90;99.90;;;;;;5024634;28;20200;-70
2021/05/02 06:28:29;;;;;;;19.20;15.30;;;9.90;99.90;;;;;;5020830;28;20197;-69
2021/05/02 06:30:54;;;;;;;16.20;14.27;;;9.90;99.90;;;;;;5022166;28;20220;-70
2021/05/02 06:33:20;;;;;;;17.23;15.43;;;10.00;99.90;;;;;;5026230;28;20286;-70
2021/05/02 06:35:45;;;;;;;17.50;13.90;;;10.10;99.90;;;;;;5027166;28;20211;-70
2021/05/02 06:38:11;;;;;;;17.47;14.43;;;10.10;99.90;;;;;;5023482;28;20795;-69
2021/05/02 06:40:37;;;;;;;17.97;14.30;;;10.10;99.90;;;;;;5021387;28;20213;-70
2021/05/02 06:43:02;;;;;;;17.63;14.30;;;10.20;99.90;;;;;;5024026;28;20239;-68
2021/05/02 06:45:28;;;;;;;17.23;14.10;;;10.30;99.90;;;;;;5024124;28;20189;-69
2021/05/02 06:47:53;;;;;;;19.20;15.10;;;10.40;99.90;;;;;;5020544;28;20189;-71
2021/05/02 06:50:19;;;;;;;18.63;14.10;;;10.50;99.90;;;;;;5019880;28;20208;-70
2021/05/02 06:52:45;;;;;;;16.73;14.53;;;10.60;99.90;;;;;;5024326;28;20184;-69
2021/05/02 06:55:11;;;;;;;15.33;13.33;;;10.70;99.90;;;;;;5022620;28;20242;-69
2021/05/02 06:57:36;;;;;;;16.40;13.93;;;10.60;99.90;;;;;;5007727;28;20613;-73
2021/05/02 07:00:03;;;;;;;17.00;14.43;;;10.60;99.90;;;;;;5022754;28;20452;-69
2021/05/02 07:02:28;;;;;;;17.30;15.00;;;10.60;99.90;;;;;;5008504;28;20258;-71
2021/05/02 07:04:54;;;;;;;18.40;14.20;;;10.60;99.90;;;;;;5023080;28;20467;-70
2021/05/02 07:07:20;;;;;;;16.60;14.10;;;10.80;99.90;;;;;;5021826;28;20196;-71
2021/05/02 07:09:45;;;;;;;15.70;12.97;;;10.80;99.90;;;;;;5023728;28;20215;-71
2021/05/02 07:12:11;;;;;;;17.67;14.07;;;10.80;99.90;;;;;;5021691;28;20200;-70
2021/05/02 07:14:36;;;;;;;16.13;14.40;;;10.70;99.90;;;;;;5022982;28;20192;-70
2021/05/02 07:17:02;;;;;;;17.03;13.83;;;10.80;99.90;;;;;;5021982;28;20686;-70
2021/05/02 07:19:28;;;;;;;17.40;15.33;;;10.80;99.90;;;;;;5021139;28;20176;-69
2021/05/02 07:22:00;;;;;;;15.70;13.63;;;10.80;99.90;;;;;;5020766;28;20514;-70
2021/05/02 07:24:26;;;;;;;16.13;12.93;;;10.80;99.90;;;;;;5021736;28;22420;-69
2021/05/02 07:26:51;;;;;;;17.27;14.63;;;10.90;99.90;;;;;;5025980;28;20442;-70
2021/05/02 07:29:17;;;;;;;17.33;14.00;;;11.00;99.90;;;;;;5020127;28;20208;-70
2021/05/02 07:31:42;;;;;;;17.63;15.50;;;11.00;99.90;;;;;;5021374;28;20290;-70
2021/05/02 07:34:08;;;;;;;18.03;14.70;;;11.10;99.90;;;;;;5007187;28;20192;-71
2021/05/02 07:36:34;;;;;;;16.13;14.33;;;11.20;99.90;;;;;;5023307;28;20201;-70
2021/05/02 07:38:59;;;;;;;18.60;14.67;;;11.10;99.90;;;;;;5025669;28;20892;-69
2021/05/02 07:41:25;;;;;;;17.90;14.60;;;11.10;99.90;;;;;;5022848;28;20209;-69
2021/05/02 07:43:50;;;;;;;13.73;12.27;;;11.10;99.90;;;;;;5023253;28;20193;-70
2021/05/02 07:46:16;;;;;;;18.53;15.13;;;11.20;99.90;;;;;;5023109;28;20215;-71
2021/05/02 07:48:42;;;;;;;17.27;15.00;;;11.40;99.90;;;;;;5007162;28;20192;-71
2021/05/02 07:51:09;;;;;;;19.53;14.60;;;11.40;99.90;;;;;;5024773;28;20208;-71
2021/05/02 07:53:34;;;;;;;17.90;13.60;;;11.40;99.90;;;;;;5022468;28;20185;-70
2021/05/02 07:56:00;;;;;;;16.30;14.60;;;11.50;99.90;;;;;;5023606;28;20617;-70
2021/05/02 07:58:25;;;;;;;19.13;15.50;;;11.60;99.90;;;;;;5023632;28;20192;-71
2021/05/02 08:00:51;;;;;;;19.30;15.07;;;11.60;99.90;;;;;;5023243;28;20224;-69
2021/05/02 08:03:17;;;;;;;16.87;15.07;;;11.80;99.90;;;;;;5019005;28;20207;-69
2021/05/02 08:05:42;;;;;;;18.27;13.33;;;11.90;99.90;;;;;;5023144;28;21180;-71
2021/05/02 08:08:08;;;;;;;17.10;13.80;;;11.90;99.90;;;;;;5019314;28;20648;-71
2021/05/02 08:10:34;;;;;;;17.63;15.20;;;12.00;99.90;;;;;;5023761;28;20203;-70
2021/05/02 08:12:59;;;;;;;15.90;14.30;;;12.20;99.90;;;;;;5004393;28;20212;-69
2021/05/02 08:15:27;;;;;;;19.67;15.20;;;12.30;99.90;;;;;;5023854;28;20193;-70
2021/05/02 08:17:52;;;;;;;19.97;16.37;;;12.40;99.90;;;;;;5021964;28;20189;-70
2021/05/02 08:20:18;;;;;;;15.40;13.37;;;12.40;99.90;;;;;;5020218;28;20466;-70
2021/05/02 08:22:43;;;;;;;17.37;14.03;;;12.60;99.90;;;;;;5018552;28;20544;-69
2021/05/02 08:25:09;;;;;;;16.67;15.00;;;12.70;99.90;;;;;;5022843;28;20188;-71
2021/05/02 08:27:35;;;;;;;17.27;15.50;;;13.00;99.90;;;;;;5025732;28;20184;-71
2021/05/02 08:30:02;;;;;;;17.13;15.40;;;13.00;99.90;;;;;;5022574;28;20436;-68
2021/05/02 08:32:28;;;;;;;15.70;14.10;;;13.00;99.90;;;;;;5023443;28;20232;-69
2021/05/02 08:34:53;;;;;;;16.07;14.40;;;13.10;99.90;;;;;;5021262;28;20432;-70
2021/05/02 08:37:19;;;;;;;15.50;13.90;;;13.20;99.90;;;;;;5022393;28;20216;-70
2021/05/02 08:39:45;;;;;;;18.53;16.53;;;13.40;99.90;;;;;;5025058;28;20271;-70
2021/05/02 08:42:10;;;;;;;16.93;14.77;;;13.60;99.90;;;;;;5021234;28;20231;-69
2021/05/02 08:44:36;;;;;;;18.50;14.53;;;13.80;99.90;;;;;;5022058;28;20272;-73
2021/05/02 08:47:04;;;;;;;16.97;13.60;;;14.00;99.90;;;;;;5005759;28;20189;-68
2021/05/02 08:49:30;;;;;;;16.50;14.80;;;14.20;99.90;;;;;;5018334;28;20466;-67
2021/05/02 08:51:56;;;;;;;15.70;13.90;;;14.20;99.90;;;;;;5002789;28;21027;-68
2021/05/02 08:54:21;;;;;;;19.67;15.60;;;14.40;99.90;;;;;;5023285;28;20197;-71
2021/05/02 08:56:47;;;;;;;16.17;14.67;;;14.50;99.90;;;;;;5001055;28;20209;-70
2021/05/02 08:59:13;;;;;;;14.83;13.33;;;14.70;99.90;;;;;;5022682;28;20250;-66
2021/05/02 09:01:40;;;;;;;16.10;14.40;;;14.80;99.90;;;;;;5021484;28;20206;-67
2021/05/02 09:04:07;;;;;;;14.93;13.43;;;14.80;99.90;;;;;;5021647;28;20543;-70
2021/05/02 09:06:35;;;;;;;16.50;14.80;;;14.60;99.90;;;;;;5021424;28;20438;-66
2021/05/02 09:09:05;;;;;;;17.07;15.27;;;14.30;99.90;;;;;;5005873;28;20577;-66
2021/05/02 09:11:38;;;;;;;17.83;15.93;;;13.90;99.90;;;;;;5019700;28;20509;-67
2021/05/02 09:14:09;;;;;;;18.73;16.77;;;13.70;99.90;;;;;;5017991;28;20492;-70
2021/05/02 09:16:52;;;;;;;16.83;15.13;;;13.50;99.90;;;;;;5023284;28;20467;-67
2021/05/02 09:19:19;;;;;;;19.80;16.27;;;13.60;99.90;;;;;;5019646;28;20513;-69
2021/05/02 09:21:45;;;;;;;18.03;16.13;;;13.80;99.90;;;;;;5022368;28;20451;-70
2021/05/02 09:24:31;;;;;;;19.83;16.60;;;14.10;99.90;;;;;;5019827;28;20838;-71
2021/05/02 09:27:08;;;;;;;16.67;14.90;;;14.10;99.90;;;;;;5020974;28;20879;-71
2021/05/02 09:29:36;;;;;;;18.67;16.10;;;14.10;99.90;;;;;;5016077;28;20485;-68
2021/05/02 09:32:03;;;;;;;17.87;15.60;;;14.30;99.90;;;;;;5019586;28;20444;-70
2021/05/02 09:34:30;;;;;;;20.90;15.07;;;14.70;99.90;;;;;;5005386;28;20427;-71
2021/05/02 09:37:06;;;;;;;17.90;16.00;;;15.10;99.90;;;;;;5019530;28;20557;-66
2021/05/02 09:39:46;;;;;;;16.90;15.20;;;15.30;99.90;;;;;;5019202;28;20775;-69
2021/05/02 09:42:17;;;;;;;19.40;16.50;;;15.10;99.90;;;;;;5021910;28;20525;-68
2021/05/02 09:44:46;;;;;;;17.93;15.13;;;14.80;99.90;;;;;;5024859;28;20423;-68
2021/05/02 09:47:39;;;;;;;17.97;16.10;;;14.70;99.90;;;;;;5027269;28;20430;-67
2021/05/02 09:50:18;;;;;;;17.97;16.10;;;14.60;99.90;;;;;;5018391;28;20460;-71
2021/05/02 09:53:02;;;;;;;18.30;16.30;;;14.50;99.90;;;;;;5003678;28;20443;-71
2021/05/02 09:55:31;;;;;;;16.70;15.10;;;14.30;99.90;;;;;;5022814;28;20538;-71
2021/05/02 09:58:10;;;;;;;17.37;15.57;;;14.10;99.90;;;;;;5024761;28;20423;-69
2021/05/02 10:00:49;;;;;;;17.47;15.60;;;13.80;99.90;;;;;;5018408;28;20471;-69
2021/05/02 10:03:16;;;;;;;19.07;16.47;;;13.30;99.90;;;;;;5022987;28;20498;-65
2021/05/02 10:06:10;;;;;;;18.20;16.30;;;12.80;99.90;;;;;;5022994;28;20518;-68
2021/05/02 10:08:39;;;;;;;18.80;16.90;;;12.60;99.90;;;;;;5017266;28;20432;-73
2021/05/02 10:11:11;;;;;;;20.77;17.50;;;12.50;99.90;;;;;;5022366;28;20542;-69
2021/05/02 10:13:39;;;;;;;20.87;17.83;;;12.40;99.90;;;;;;5025160;28;20837;-68
2021/05/02 10:16:06;;;;;;;21.43;18.47;;;12.50;99.90;;;;;;5006773;28;20490;-67
2021/05/02 10:18:33;;;;;;;16.97;14.97;;;12.70;99.90;;;;;;5024812;28;20585;-67
2021/05/02 10:20:59;;;;;;;18.10;15.10;;;13.10;99.90;;;;;;5020880;28;20501;-67
2021/05/02 10:23:26;;;;;;;15.57;14.10;;;13.50;99.90;;;;;;5023174;28;20534;-69
2021/05/02 10:25:56;;;;;;;17.63;15.53;;;13.90;99.90;;;;;;5022408;28;20562;-70
2021/05/02 10:28:27;;;;;;;17.97;16.13;;;14.00;99.90;;;;;;5022578;28;20514;-68
2021/05/02 10:30:58;;;;;;;19.97;17.97;;;14.00;99.90;;;;;;5020950;28;20466;-67
2021/05/02 10:33:42;;;;;;;17.17;15.53;;;14.00;99.90;;;;;;5023531;28;20493;-69
2021/05/02 10:36:12;;;;;;;18.33;16.47;;;13.90;99.90;;;;;;5024287;28;20471;-68
2021/05/02 10:38:49;;;;;;;17.90;15.70;;;14.30;99.90;;;;;;5026507;28;20687;-76
2021/05/02 10:41:37;;;;;;;22.07;17.00;;;14.60;99.90;;;;;;5023236;28;20534;-69
2021/05/02 10:44:12;;;;;;;18.57;16.70;;;15.30;99.90;;;;;;5020562;28;20511;-67
2021/05/02 10:46:45;;;;;;;17.33;15.53;;;15.80;99.90;;;;;;5023515;28;20512;-71
2021/05/02 10:49:12;;;;;;;16.33;14.47;;;15.80;99.90;;;;;;5010684;28;20430;-70
2021/05/02 10:51:39;;;;;;;17.40;15.50;;;16.50;99.90;;;;;;5028715;28;20965;-72
2021/05/02 10:54:07;;;;;;;16.20;14.70;;;16.20;99.90;;;;;;5024262;28;20485;-71
2021/05/02 10:56:43;;;;;;;16.77;15.13;;;15.70;99.90;;;;;;5024736;28;20454;-71
2021/05/02 10:59:09;;;;;;;17.67;14.73;;;15.30;99.90;;;;;;5021361;28;20485;-69
2021/05/02 11:01:35;;;;;;;16.90;15.27;;;16.00;99.90;;;;;;5024326;28;20459;-73
2021/05/02 11:04:01;;;;;;;15.77;13.70;;;17.60;99.90;;;;;;5024085;28;20438;-70
2021/05/02 11:06:39;;;;;;;17.77;16.07;;;16.90;99.90;;;;;;5022437;28;20526;-71
2021/05/02 11:09:28;;;;;;;16.87;15.17;;;18.50;99.90;;;;;;5023344;28;20454;-69
2021/05/02 11:11:56;;;;;;;17.07;15.40;;;17.80;99.90;;;;;;5003553;28;20469;-69
2021/05/02 11:14:22;;;;;;;16.30;14.83;;;16.80;99.90;;;;;;5018425;28;20427;-70
2021/05/02 11:16:49;;;;;;;18.10;16.50;;;15.80;99.90;;;;;;5021428;28;21183;-70
2021/05/02 11:19:22;;;;;;;18.43;15.97;;;15.20;99.90;;;;;;5021190;28;20205;-70
2021/05/02 11:22:09;;;;;;;17.70;15.83;;;14.90;99.90;;;;;;5023012;28;20463;-69
2021/05/02 11:24:43;;;;;;;14.17;12.80;;;14.40;99.90;;;;;;5023770;28;20425;-70
2021/05/02 11:34:58;;;;;;;14.00;12.17;;;13.50;99.90;;;;;;5024605;28;20439;-69
2021/05/02 11:37:45;;;;;;;13.10;12.00;;;13.50;99.90;;;;;;5024245;28;21029;-72
2021/05/02 11:40:30;;;;;;;12.40;11.30;;;14.60;99.90;;;;;;5025753;28;20423;-69
2021/05/02 11:43:05;;;;;;;13.40;12.10;;;15.80;99.90;;;;;;5026101;28;20430;-71
2021/05/02 11:45:51;;;;;;;14.37;11.73;;;16.10;98.60;;;;;;5027076;28;20522;-69
2021/05/02 11:48:31;;;;;;;12.00;10.93;;;15.60;96.50;;;;;;5022560;28;20458;-72
2021/05/02 11:50:59;;;;;;;12.50;11.40;;;15.50;97.30;;;;;;5023995;28;20518;-71
2021/05/02 11:53:36;;;;;;;13.53;12.30;;;15.70;95.70;;;;;;4993213;28;20523;-70
2021/05/02 11:56:18;;;;;;;12.23;11.13;;;15.30;94.20;;;;;;5021935;28;20462;-70
2021/05/02 11:58:45;;;;;;;11.87;10.67;;;15.30;93.20;;;;;;5023167;28;20466;-70
2021/05/02 12:01:17;;;;;;;9.47;8.67;;;15.20;90.40;;;;;;5021274;28;20808;-69
2021/05/02 12:03:45;;;;;;;10.30;9.40;;;15.20;88.70;;;;;;5006831;28;20506;-71
2021/05/02 12:06:22;;;;;;;9.77;8.97;;;15.70;88.20;;;;;;5024432;28;20456;-71
2021/05/02 12:08:48;;;;;;;8.73;8.03;;;16.30;88.50;;;;;;5009215;28;20450;-71
2021/05/02 12:11:14;;;;;;;9.10;8.40;;;16.80;81.70;;;;;;5010468;28;20451;-71
2021/05/02 12:13:44;;;;;;;9.50;8.70;;;17.30;75.70;;;;;;5024833;28;20276;-70
2021/05/02 12:16:18;;;;;;;10.37;9.57;;;17.00;72.40;;;;;;5008054;28;20243;-70
2021/05/02 12:18:49;;;;;;;9.97;9.07;;;16.20;69.00;;;;;;5024776;28;20518;-70
2021/05/02 12:21:37;;;;;;;8.37;7.57;;;15.80;69.60;;;;;;5007250;28;20929;-71
2021/05/02 12:24:25;;;;;;;8.90;8.03;;;15.70;71.30;;;;;;5023528;28;20477;-70
2021/05/02 12:26:53;;;;;;;9.13;8.33;;;15.40;70.00;;;;;;5022040;28;20520;-71
2021/05/02 12:29:24;;;;;;;7.97;7.37;;;15.50;68.60;;;;;;5018646;28;21091;-72
2021/05/02 12:32:01;;;;;;;7.83;6.83;;;15.50;66.60;;;;;;5022094;28;20859;-72
2021/05/02 12:34:32;;;;;;;8.40;7.70;;;15.60;65.60;;;;;;5020246;28;20441;-71
2021/05/02 12:37:07;;;;;;;7.87;7.20;;;15.60;64.40;;;;;;5020080;28;21168;-69
2021/05/02 12:39:34;;;;;;;7.93;7.23;;;15.50;64.70;;;;;;5023155;28;20450;-71
2021/05/02 12:42:00;;;;;;;7.60;6.90;;;15.40;65.40;;;;;;5006621;28;20485;-72
2021/05/02 12:44:28;;;;;;;7.37;6.70;;;15.30;65.90;;;;;;5022187;28;20458;-70
2021/05/02 12:47:04;;;;;;;6.67;6.07;;;15.30;66.70;;;;;;5022591;28;20528;-68
2021/05/02 12:49:31;;;;;;;7.47;6.87;;;15.30;65.80;;;;;;5009109;28;20446;-73